Time;durP1;ratioP1;P1;durP2;ratioP2;P2;SDS_P1;SDS_P2;PMS_P1;PMS_P2;Temp;Humidity;BMP_temperature;BMP_pressure;BME280_temperature;BME280_humidity;BME280_pressure;Samples;Min_cycle;Max_cycle;Signal;HPM_P1;HPM_P2
2022/09/30 00:00:58;;;;;;;16.48;13.57;;;;;;;5.65;100.00;100628.50;5254212;28;20059;-71
2022/09/30 00:03:29;;;;;;;16.17;13.68;;;;;;;5.55;100.00;100627.38;5260956;28;20048;-71
2022/09/30 00:06:04;;;;;;;16.00;13.35;;;;;;;5.56;100.00;100632.56;5262884;28;20039;-71
2022/09/30 00:08:38;;;;;;;16.75;13.15;;;;;;;5.53;100.00;100639.84;5252523;28;20082;-71
2022/09/30 00:11:15;;;;;;;;;;;;;;;5.64;100.00;100643.56;5264284;28;20048;-71
2022/09/30 00:13:49;;;;;;;19.63;14.38;;;;;;;5.54;100.00;100642.38;5258645;28;19927;-71
2022/09/30 00:16:22;;;;;;;17.27;13.98;;;;;;;5.46;100.00;100642.81;5252887;28;22339;-71
2022/09/30 00:18:55;;;;;;;21.63;14.80;;;;;;;5.44;100.00;100646.50;5265734;28;20024;-70
2022/09/30 00:21:29;;;;;;;16.92;14.52;;;;;;;5.45;100.00;100645.59;5260989;28;20028;-71
2022/09/30 00:24:01;;;;;;;16.50;14.50;;;;;;;5.37;100.00;100651.31;5253518;28;20047;-71
2022/09/30 00:26:34;;;;;;;16.92;13.82;;;;;;;5.32;100.00;100641.94;5254797;28;20028;-71
2022/09/30 00:29:05;;;;;;;16.88;14.15;;;;;;;5.34;100.00;100643.56;5250596;28;20153;-71
2022/09/30 00:31:36;;;;;;;21.17;15.25;;;;;;;5.35;100.00;100649.69;5255967;28;20573;-71
2022/09/30 00:34:10;;;;;;;20.02;16.35;;;;;;;5.41;100.00;100646.72;5259358;28;20662;-71
2022/09/30 00:36:42;;;;;;;19.08;14.90;;;;;;;5.37;100.00;100646.03;5238985;28;20025;-71
2022/09/30 00:39:17;;;;;;;19.10;15.05;;;;;;;5.28;100.00;100643.91;5254642;28;20081;-71
2022/09/30 00:41:52;;;;;;;;;;;;;;;5.43;100.00;100643.03;5257511;28;20036;-71
2022/09/30 00:44:44;;;;;;;16.88;14.15;;;;;;;5.28;100.00;100646.56;5251565;28;19919;-71
2022/09/30 00:47:24;;;;;;;16.38;13.93;;;;;;;5.17;100.00;100641.03;5252503;28;20391;-71
2022/09/30 00:50:00;;;;;;;17.77;14.10;;;;;;;5.09;100.00;100638.81;5249834;28;20060;-71
2022/09/30 00:52:32;;;;;;;20.08;15.07;;;;;;;5.12;100.00;100643.94;5249192;28;20102;-70
2022/09/30 00:55:08;;;;;;;18.27;15.07;;;;;;;5.08;100.00;100648.56;5248799;28;20029;-72
2022/09/30 00:57:43;;;;;;;20.63;15.25;;;;;;;5.09;100.00;100644.09;5250533;28;20025;-71
2022/09/30 01:00:14;;;;;;;22.27;15.45;;;;;;;5.08;100.00;100645.03;5252714;28;20044;-72
2022/09/30 01:02:46;;;;;;;20.40;15.65;;;;;;;5.06;100.00;100653.09;5256271;28;20039;-71
2022/09/30 01:05:19;;;;;;;17.85;14.98;;;;;;;5.04;100.00;100657.59;5258354;28;20017;-71
2022/09/30 01:07:51;;;;;;;18.92;14.35;;;;;;;5.02;100.00;100653.31;5261059;28;20375;-72
2022/09/30 01:10:22;;;;;;;22.85;15.30;;;;;;;4.95;100.00;100644.91;5257740;28;20036;-72
2022/09/30 01:12:55;;;;;;;18.35;14.35;;;;;;;4.94;100.00;100644.97;5255342;28;20063;-72
2022/09/30 01:15:41;;;;;;;18.08;14.55;;;;;;;4.97;100.00;100650.94;5256076;28;20033;-72
2022/09/30 01:18:25;;;;;;;20.33;14.95;;;;;;;4.99;100.00;100646.44;5250884;28;20214;-72
2022/09/30 01:21:10;;;;;;;20.40;15.85;;;;;;;5.08;100.00;100647.69;5260610;28;20528;-71
2022/09/30 01:24:08;;;;;;;21.80;17.05;;;;;;;5.09;100.00;100646.75;5263775;28;20375;-72
2022/09/30 01:27:03;;;;;;;19.40;15.35;;;;;;;5.01;100.00;100643.69;5256460;28;20025;-71
2022/09/30 01:29:44;;;;;;;;;;;;;;;5.09;100.00;100647.59;5257810;28;21564;-71
2022/09/30 01:32:34;;;;;;;22.90;16.23;;;;;;;4.96;100.00;100649.22;5254599;28;20354;-71
2022/09/30 01:35:31;;;;;;;17.45;14.90;;;;;;;4.93;100.00;100652.06;5259996;28;20036;-71
2022/09/30 01:38:15;;;;;;;20.27;15.45;;;;;;;4.84;100.00;100647.28;5262056;28;20422;-72
2022/09/30 01:40:57;;;;;;;19.52;15.75;;;;;;;4.81;100.00;100650.09;5256303;28;20505;-71
2022/09/30 01:43:44;;;;;;;19.35;14.98;;;;;;;4.81;100.00;100647.44;5251426;28;20486;-71
2022/09/30 01:46:42;;;;;;;20.33;16.17;;;;;;;4.92;100.00;100655.63;5250273;28;20052;-72
2022/09/30 01:49:37;;;;;;;21.60;17.15;;;;;;;4.89;100.00;100654.03;5250046;28;20124;-72
2022/09/30 01:52:15;;;;;;;22.13;18.10;;;;;;;4.88;100.00;100648.81;5251196;28;20470;-72
2022/09/30 01:55:05;;;;;;;22.35;18.17;;;;;;;4.85;100.00;100648.97;5246707;28;20513;-72
2022/09/30 01:57:51;;;;;;;23.77;17.92;;;;;;;4.77;100.00;100648.56;5249883;28;20079;-72
2022/09/30 02:00:24;;;;;;;23.63;19.45;;;;;;;4.79;100.00;100646.69;5251448;28;20639;-72
2022/09/30 02:03:00;;;;;;;21.50;17.70;;;;;;;4.85;100.00;100649.84;5264619;28;20081;-72
2022/09/30 02:05:54;;;;;;;24.52;19.17;;;;;;;4.87;100.00;100655.91;5255448;28;20033;-71
2022/09/30 02:08:33;;;;;;;22.92;18.40;;;;;;;4.78;100.00;100652.91;5254635;28;20046;-71
2022/09/30 02:11:11;;;;;;;24.08;17.48;;;;;;;4.71;100.00;100657.69;5256606;28;20029;-71
2022/09/30 02:13:50;;;;;;;24.67;18.25;;;;;;;4.68;100.00;100650.78;5249036;28;20017;-71
2022/09/30 02:16:27;;;;;;;22.77;18.10;;;;;;;4.66;100.00;100647.38;5254299;28;20025;-71
2022/09/30 02:19:12;;;;;;;23.10;17.73;;;;;;;4.79;100.00;100654.59;5252530;28;20044;-72
2022/09/30 02:21:46;;;;;;;;;;;;;;;4.84;100.00;100655.22;5261960;28;20024;-71
2022/09/30 02:24:24;;;;;;;25.10;18.05;;;;;;;4.66;100.00;100659.72;5250801;28;19916;-72
2022/09/30 02:26:59;;;;;;;22.67;18.17;;;;;;;4.67;100.00;100656.16;5252721;28;20028;-71
2022/09/30 02:29:35;;;;;;;22.77;18.23;;;;;;;4.61;100.00;100656.50;5250844;28;20025;-72
2022/09/30 02:32:29;;;;;;;24.27;19.20;;;;;;;4.61;100.00;100659.97;5246926;28;20088;-71
2022/09/30 02:35:11;;;;;;;22.13;18.30;;;;;;;4.57;100.00;100668.16;5256269;28;20148;-71
2022/09/30 02:37:49;;;;;;;22.73;18.75;;;;;;;4.57;100.00;100652.31;5257305;28;20040;-72
2022/09/30 02:40:31;;;;;;;26.35;20.73;;;;;;;4.57;100.00;100649.66;5255178;28;20773;-71
2022/09/30 02:43:04;;;;;;;25.45;20.45;;;;;;;4.56;100.00;100655.88;5259994;28;20424;-71
2022/09/30 02:45:51;;;;;;;25.42;20.05;;;;;;;4.50;100.00;100651.78;5259470;28;20085;-71
2022/09/30 02:48:30;;;;;;;26.00;20.27;;;;;;;4.44;100.00;100655.59;5250426;28;20036;-72
2022/09/30 02:51:10;;;;;;;25.27;19.23;;;;;;;4.42;100.00;100654.00;5253749;28;20064;-71
2022/09/30 02:54:06;;;;;;;29.02;19.95;;;;;;;4.43;100.00;100653.91;5253043;28;20038;-71
2022/09/30 02:56:58;;;;;;;23.08;19.02;;;;;;;4.42;100.00;100659.28;5257529;28;20036;-71
2022/09/30 02:59:30;;;;;;;25.33;19.63;;;;;;;4.33;100.00;100660.59;5257732;28;20467;-71
2022/09/30 03:02:01;;;;;;;26.27;19.90;;;;;;;4.31;100.00;100660.72;5253352;28;20035;-72
2022/09/30 03:04:34;;;;;;;24.80;19.58;;;;;;;4.30;100.00;100658.16;5263497;28;20090;-71
2022/09/30 03:07:06;;;;;;;27.92;20.17;;;;;;;4.33;100.00;100652.69;5263147;28;20056;-71
2022/09/30 03:09:38;;;;;;;25.13;19.30;;;;;;;4.43;100.00;100655.69;5263059;28;20115;-72
2022/09/30 03:12:33;;;;;;;24.42;20.10;;;;;;;4.35;100.00;100656.09;5258366;28;20032;-72
2022/09/30 03:15:19;;;;;;;29.80;20.95;;;;;;;4.33;100.00;100665.88;5259325;28;20479;-72
2022/09/30 03:18:06;;;;;;;25.50;20.10;;;;;;;4.27;100.00;100666.22;5258346;28;20107;-71
2022/09/30 03:21:15;;;;;;;28.58;20.77;;;;;;;4.32;100.00;100665.03;5255405;28;20043;-72
2022/09/30 03:24:08;;;;;;;29.38;20.52;;;;;;;4.32;100.00;100659.75;5255514;28;20511;-71
2022/09/30 03:27:01;;;;;;;29.75;22.02;;;;;;;4.43;100.00;100669.75;5262590;28;20037;-71
2022/09/30 03:29:39;;;;;;;30.45;23.10;;;;;;;4.31;100.00;100673.03;5256952;28;20377;-71
2022/09/30 03:32:28;;;;;;;28.65;20.83;;;;;;;4.29;100.00;100670.47;5258534;28;20024;-71
2022/09/30 03:35:20;;;;;;;28.88;21.60;;;;;;;4.28;100.00;100665.28;5260954;28;20036;-72
2022/09/30 03:38:02;;;;;;;29.98;21.90;;;;;;;4.23;100.00;100656.75;5267276;28;20426;-71
2022/09/30 03:40:49;;;;;;;30.63;21.77;;;;;;;4.22;100.00;100666.47;5258715;28;20032;-71
2022/09/30 03:43:29;;;;;;;28.80;21.05;;;;;;;4.19;100.00;100663.97;5266033;28;20029;-71
2022/09/30 03:46:05;;;;;;;29.67;22.17;;;;;;;4.18;100.00;100674.63;5258058;28;20043;-71
2022/09/30 03:48:39;;;;;;;31.90;22.33;;;;;;;4.12;100.00;100679.31;5258847;28;20068;-71
2022/09/30 03:51:12;;;;;;;31.52;23.85;;;;;;;4.14;100.00;100679.22;5265129;28;20061;-71
2022/09/30 03:53:45;;;;;;;30.65;23.48;;;;;;;4.12;100.00;100675.78;5258957;28;20037;-71
2022/09/30 03:56:24;;;;;;;31.60;23.98;;;;;;;4.20;100.00;100686.81;5258175;28;20032;-71
2022/09/30 03:58:56;;;;;;;38.92;25.17;;;;;;;4.20;100.00;100685.94;5253936;28;20033;-72
2022/09/30 04:01:28;;;;;;;32.30;24.15;;;;;;;4.22;100.00;100687.59;5258256;28;20028;-71
2022/09/30 04:03:59;;;;;;;31.13;24.13;;;;;;;4.16;100.00;100689.69;5256947;28;20028;-71
2022/09/30 04:06:30;;;;;;;35.05;23.20;;;;;;;4.18;100.00;100690.47;5258300;28;20039;-71
2022/09/30 04:09:02;;;;;;;32.42;24.13;;;;;;;4.18;100.00;100687.81;5259114;28;20394;-71
2022/09/30 04:11:33;;;;;;;32.20;23.52;;;;;;;4.31;100.00;100700.31;5253880;28;20441;-71
2022/09/30 04:14:04;;;;;;;29.60;23.02;;;;;;;4.20;100.00;100704.44;5264067;28;20400;-71
2022/09/30 04:16:36;;;;;;;29.98;23.35;;;;;;;4.26;100.00;100714.72;5254926;28;20025;-71
2022/09/30 04:19:07;;;;;;;30.70;24.48;;;;;;;4.17;100.00;100718.66;5263218;28;20499;-72
2022/09/30 04:21:39;;;;;;;32.05;23.45;;;;;;;4.24;100.00;100720.06;5253252;28;20028;-72
2022/09/30 04:24:10;;;;;;;33.17;24.27;;;;;;;4.17;100.00;100731.88;5255080;28;20024;-72
2022/09/30 04:26:41;;;;;;;28.40;22.42;;;;;;;4.16;100.00;100745.13;5255573;28;20115;-72
2022/09/30 04:29:13;;;;;;;26.98;22.25;;;;;;;4.11;100.00;100751.53;5256637;28;20877;-71
2022/09/30 04:31:44;;;;;;;28.77;23.13;;;;;;;4.08;100.00;100742.91;5256933;28;20106;-72
2022/09/30 04:34:16;;;;;;;27.58;21.92;;;;;;;4.09;100.00;100745.47;5262468;28;21425;-71
2022/09/30 04:36:47;;;;;;;29.00;23.13;;;;;;;4.06;100.00;100742.13;5261391;28;20040;-72
2022/09/30 04:39:18;;;;;;;30.38;23.33;;;;;;;4.09;100.00;100740.19;5259529;28;20020;-71
2022/09/30 04:41:52;;;;;;;33.13;23.50;;;;;;;4.06;100.00;100739.47;5257381;28;20639;-71
2022/09/30 04:44:23;;;;;;;30.52;23.42;;;;;;;4.01;100.00;100731.81;5261877;28;20039;-71
2022/09/30 04:46:55;;;;;;;28.67;22.85;;;;;;;4.03;100.00;100737.88;5257794;28;20024;-71
2022/09/30 04:49:26;;;;;;;31.05;23.67;;;;;;;3.98;100.00;100737.22;5262208;28;20032;-71
2022/09/30 04:51:57;;;;;;;29.63;23.42;;;;;;;4.01;100.00;100742.38;5262271;28;20172;-70
2022/09/30 04:54:29;;;;;;;30.83;23.33;;;;;;;3.99;100.00;100746.00;5257105;28;20021;-72
2022/09/30 04:57:00;;;;;;;30.67;23.08;;;;;;;3.98;100.00;100749.59;5254770;28;20048;-72
2022/09/30 04:59:32;;;;;;;30.65;24.55;;;;;;;3.94;100.00;100754.16;5255703;28;20116;-72
2022/09/30 05:02:04;;;;;;;29.92;23.23;;;;;;;3.95;100.00;100757.66;5259569;28;20475;-72
2022/09/30 05:04:35;;;;;;;31.98;24.30;;;;;;;3.89;100.00;100757.03;5264709;28;20028;-72
2022/09/30 05:07:07;;;;;;;31.70;24.80;;;;;;;3.87;100.00;100750.13;5263276;28;20035;-72
2022/09/30 05:09:39;;;;;;;31.08;24.23;;;;;;;3.83;100.00;100757.31;5261652;28;20068;-72
2022/09/30 05:12:10;;;;;;;29.40;22.25;;;;;;;3.87;100.00;100768.59;5263023;28;20112;-72
2022/09/30 05:14:41;;;;;;;30.92;23.90;;;;;;;3.85;100.00;100759.91;5259723;28;20041;-71
2022/09/30 05:17:12;;;;;;;29.73;24.00;;;;;;;3.83;100.00;100769.69;5261497;28;20103;-71
2022/09/30 05:19:44;;;;;;;29.27;22.45;;;;;;;3.80;100.00;100769.84;5261181;28;20097;-71
2022/09/30 05:22:15;;;;;;;30.33;23.33;;;;;;;3.77;100.00;100773.47;5259124;28;20025;-71
2022/09/30 05:24:46;;;;;;;32.25;23.80;;;;;;;3.83;100.00;100774.94;5260756;28;20432;-72
2022/09/30 05:27:19;;;;;;;32.58;23.95;;;;;;;3.81;100.00;100771.53;5259904;28;20048;-72
2022/09/30 05:29:50;;;;;;;33.10;24.35;;;;;;;3.76;100.00;100771.78;5265342;28;20355;-72
2022/09/30 05:32:21;;;;;;;33.45;25.02;;;;;;;3.76;100.00;100774.41;5262798;28;20036;-72
2022/09/30 05:34:55;;;;;;;34.53;25.83;;;;;;;3.71;100.00;100769.34;5258280;28;20060;-72
2022/09/30 05:37:27;;;;;;;31.63;24.95;;;;;;;3.70;100.00;100772.94;5256430;28;20280;-72
2022/09/30 05:39:58;;;;;;;31.38;24.75;;;;;;;3.72;100.00;100781.63;5270248;28;20033;-72
2022/09/30 05:42:31;;;;;;;30.98;24.13;;;;;;;3.69;100.00;100791.47;5257756;28;20466;-72
2022/09/30 05:45:06;;;;;;;32.13;22.77;;;;;;;3.71;100.00;100797.53;5260261;28;20031;-72
2022/09/30 05:47:38;;;;;;;34.53;24.50;;;;;;;3.70;100.00;100801.06;5258650;28;20051;-72
2022/09/30 05:50:09;;;;;;;33.97;25.08;;;;;;;3.77;100.00;100812.22;5261752;28;20306;-72
2022/09/30 05:52:40;;;;;;;32.83;23.63;;;;;;;3.78;100.00;100813.91;5259378;28;20045;-72
2022/09/30 05:55:12;;;;;;;30.02;23.73;;;;;;;3.75;100.00;100821.97;5263635;28;20086;-72
2022/09/30 05:57:47;;;;;;;34.72;24.52;;;;;;;3.78;100.00;100820.06;5259624;28;20035;-71
2022/09/30 06:00:19;;;;;;;30.23;24.50;;;;;;;3.75;100.00;100811.44;5256670;28;20039;-72
2022/09/30 06:02:50;;;;;;;32.70;23.88;;;;;;;3.89;100.00;100820.38;5259681;28;20479;-72
2022/09/30 06:05:22;;;;;;;31.25;24.58;;;;;;;3.84;100.00;100824.19;5261426;28;20033;-72
2022/09/30 06:07:54;;;;;;;31.55;24.00;;;;;;;3.83;100.00;100833.88;5260838;28;20127;-72
2022/09/30 06:10:25;;;;;;;28.98;22.75;;;;;;;3.83;100.00;100833.88;5263433;28;20138;-72
2022/09/30 06:12:58;;;;;;;29.98;24.02;;;;;;;3.85;100.00;100837.28;5264976;28;20058;-71
2022/09/30 06:15:29;;;;;;;31.38;23.05;;;;;;;3.86;100.00;100833.72;5257301;28;20365;-72
2022/09/30 06:18:00;;;;;;;30.25;23.50;;;;;;;3.96;100.00;100828.84;5264735;28;20819;-72
2022/09/30 06:20:31;;;;;;;35.45;26.50;;;;;;;4.10;100.00;100839.59;5269860;28;20024;-71
2022/09/30 06:23:03;;;;;;;33.30;25.23;;;;;;;4.00;100.00;100840.13;5276519;28;20036;-72
2022/09/30 06:25:35;;;;;;;32.78;24.00;;;;;;;4.16;100.00;100842.84;5276150;28;20024;-72
2022/09/30 06:28:06;;;;;;;34.35;26.40;;;;;;;4.13;100.00;100847.34;5276744;28;20033;-71
2022/09/30 06:30:37;;;;;;;33.22;26.17;;;;;;;4.24;100.00;100856.53;5284522;28;20029;-72
2022/09/30 06:33:09;;;;;;;31.95;25.65;;;;;;;4.16;100.00;100850.75;5265256;28;20032;-72
2022/09/30 06:35:41;;;;;;;32.88;25.42;;;;;;;4.24;100.00;100843.34;5287808;28;20079;-71
2022/09/30 06:38:17;;;;;;;33.40;25.63;;;;;;;4.21;100.00;100852.25;5270694;28;20033;-71
2022/09/30 06:40:49;;;;;;;30.80;25.00;;;;;;;4.24;100.00;100845.97;5279479;28;20036;-72
2022/09/30 06:43:20;;;;;;;36.22;27.65;;;;;;;4.34;100.00;100841.94;5274931;28;20441;-72
2022/09/30 06:45:51;;;;;;;33.55;27.00;;;;;;;4.38;100.00;100825.00;5259260;28;20036;-71
2022/09/30 06:48:23;;;;;;;35.83;27.80;;;;;;;4.39;100.00;100833.75;5285544;28;20035;-72
2022/09/30 06:50:57;;;;;;;37.10;27.90;;;;;;;4.45;100.00;100833.44;5282503;28;20060;-72
2022/09/30 06:53:28;;;;;;;;;;;;;;;4.49;100.00;100837.66;5267019;28;20078;-71
2022/09/30 06:56:00;;;;;;;40.17;30.77;;;;;;;4.60;100.00;100837.09;5278209;28;19920;-71
2022/09/30 06:58:38;;;;;;;38.67;29.75;;;;;;;4.57;100.00;100830.19;5270298;28;20089;-71
2022/09/30 07:01:15;;;;;;;41.88;30.60;;;;;;;4.64;100.00;100841.28;5281010;28;20119;-72
2022/09/30 07:03:47;;;;;;;43.72;30.90;;;;;;;4.83;100.00;100841.16;5275546;28;20115;-71
2022/09/30 07:06:18;;;;;;;49.10;33.72;;;;;;;4.88;100.00;100833.88;5276298;28;20127;-71
2022/09/30 07:08:50;;;;;;;49.03;34.40;;;;;;;4.89;100.00;100839.06;5287793;28;20028;-71
2022/09/30 07:11:22;;;;;;;49.63;35.55;;;;;;;4.93;100.00;100838.91;5270244;28;20056;-71
2022/09/30 07:13:54;;;;;;;54.90;36.45;;;;;;;5.06;100.00;100843.47;5279581;28;20470;-71
2022/09/30 07:16:25;;;;;;;50.53;36.00;;;;;;;5.01;100.00;100842.00;5276737;28;20031;-71
2022/09/30 07:18:58;;;;;;;62.05;40.42;;;;;;;5.14;100.00;100834.25;5271739;28;20548;-70
2022/09/30 07:21:30;;;;;;;60.92;40.75;;;;;;;5.22;100.00;100837.34;5286435;28;20367;-71
2022/09/30 07:24:02;;;;;;;59.88;41.75;;;;;;;5.25;100.00;100840.69;5277361;28;20040;-71
2022/09/30 07:26:38;;;;;;;61.30;41.33;;;;;;;5.32;100.00;100840.34;5288308;28;20096;-72
2022/09/30 07:29:12;;;;;;;64.22;43.20;;;;;;;5.41;100.00;100839.84;5279551;28;20133;-72
2022/09/30 07:31:43;;;;;;;61.88;42.72;;;;;;;5.41;100.00;100847.78;5249187;28;20034;-72
2022/09/30 07:34:15;;;;;;;59.05;41.50;;;;;;;5.45;100.00;100849.31;5277252;28;20033;-72
2022/09/30 07:36:46;;;;;;;60.85;41.28;;;;;;;5.55;100.00;100853.16;5271247;28;20037;-72
2022/09/30 07:39:17;;;;;;;62.75;42.55;;;;;;;5.61;100.00;100846.69;5283554;28;20056;-72
2022/09/30 07:41:49;;;;;;;60.30;40.67;;;;;;;5.70;100.00;100856.75;5264877;28;20506;-72
2022/09/30 07:44:20;;;;;;;61.78;41.88;;;;;;;5.70;100.00;100857.59;5277467;28;20078;-72
2022/09/30 07:46:52;;;;;;;66.82;42.83;;;;;;;5.79;100.00;100856.25;5267635;28;20025;-72
2022/09/30 07:49:24;;;;;;;61.13;39.95;;;;;;;5.90;100.00;100851.16;5266166;28;20111;-68
2022/09/30 07:51:57;;;;;;;61.13;40.17;;;;;;;5.86;100.00;100848.78;5270736;28;20126;-72
2022/09/30 07:54:31;;;;;;;59.87;40.47;;;;;;;6.02;100.00;100847.03;5273089;28;20394;-72
2022/09/30 07:57:04;;;;;;;56.92;37.85;;;;;;;5.96;100.00;100849.16;5287438;28;20713;-71
2022/09/30 07:59:37;;;;;;;62.15;40.00;;;;;;;6.09;100.00;100847.50;5284726;28;20046;-71
2022/09/30 08:02:14;;;;;;;63.13;42.08;;;;;;;6.15;100.00;100856.91;5287088;28;20370;-72
2022/09/30 08:04:46;;;;;;;59.45;40.70;;;;;;;6.25;100.00;100853.63;5285388;28;20031;-70
2022/09/30 08:07:17;;;;;;;62.92;41.60;;;;;;;6.33;100.00;100853.19;5283215;28;20036;-72
2022/09/30 08:09:49;;;;;;;59.85;41.03;;;;;;;6.42;100.00;100842.06;5276820;28;20019;-71
2022/09/30 08:12:20;;;;;;;63.55;42.15;;;;;;;6.51;100.00;100842.44;5285341;28;20135;-71
2022/09/30 08:14:51;;;;;;;69.28;44.25;;;;;;;6.52;100.00;100846.78;5272202;28;20110;-71
2022/09/30 08:17:23;;;;;;;67.18;43.40;;;;;;;6.51;100.00;100845.94;5274058;28;20112;-71
2022/09/30 08:19:54;;;;;;;64.18;43.88;;;;;;;6.71;100.00;100846.53;5284947;28;20029;-72
2022/09/30 08:22:27;;;;;;;73.32;47.08;;;;;;;6.62;100.00;100854.09;5285805;28;20029;-72
2022/09/30 08:24:58;;;;;;;76.78;49.63;;;;;;;6.73;100.00;100853.47;5285873;28;20032;-72
2022/09/30 08:27:29;;;;;;;67.55;45.80;;;;;;;6.87;100.00;100852.63;5278325;28;20043;-71
2022/09/30 08:30:01;;;;;;;79.78;49.90;;;;;;;6.85;100.00;100858.00;5284652;28;20037;-72
2022/09/30 08:32:32;;;;;;;70.28;45.30;;;;;;;6.92;100.00;100850.53;5268266;28;20035;-72
2022/09/30 08:35:04;;;;;;;74.00;45.50;;;;;;;6.96;100.00;100856.50;5280014;28;20029;-72
2022/09/30 08:37:35;;;;;;;70.70;43.63;;;;;;;7.06;100.00;100847.06;5285932;28;20020;-71
2022/09/30 08:40:16;;;;;;;69.38;43.28;;;;;;;7.16;100.00;100852.63;5286729;28;20100;-72
2022/09/30 08:42:48;;;;;;;68.93;44.00;;;;;;;7.50;100.00;100850.50;5279149;28;20107;-72
2022/09/30 08:45:47;;;;;;;69.80;43.95;;;;;;;7.49;100.00;100843.50;5276690;28;20974;-72
2022/09/30 08:48:43;;;;;;;67.85;42.25;;;;;;;7.54;100.00;100849.38;5271212;28;20056;-72
2022/09/30 08:51:30;;;;;;;65.13;41.55;;;;;;;7.78;100.00;100854.91;5285287;28;20063;-72
2022/09/30 08:54:05;;;;;;;65.05;42.38;;;;;;;7.90;100.00;100862.09;5278491;28;20024;-72
2022/09/30 08:56:36;;;;;;;68.68;42.53;;;;;;;7.90;100.00;100862.09;5276708;28;20534;-71
2022/09/30 08:59:26;;;;;;;68.18;44.15;;;;;;;8.04;100.00;100859.38;5293409;28;20162;-71
2022/09/30 09:02:26;;;;;;;65.43;42.70;;;;;;;8.15;100.00;100861.31;5281369;28;20031;-72
2022/09/30 09:05:00;;;;;;;60.88;42.00;;;;;;;8.38;100.00;100861.56;5289946;28;20044;-71
2022/09/30 09:07:57;;;;;;;67.50;44.38;;;;;;;8.37;100.00;100857.22;5277283;28;20071;-71
2022/09/30 09:10:43;;;;;;;63.08;41.75;;;;;;;8.61;100.00;100844.97;5282683;28;20036;-71
2022/09/30 09:13:55;;;;;;;60.10;40.70;;;;;;;8.68;100.00;100839.22;5273657;28;20032;-71
2022/09/30 09:16:37;;;;;;;55.40;39.22;;;;;;;8.79;100.00;100852.66;5268932;28;20047;-71
2022/09/30 09:19:29;;;;;;;54.53;36.63;;;;;;;9.01;100.00;100854.66;5277560;28;20102;-71
2022/09/30 09:22:01;;;;;;;56.20;37.47;;;;;;;9.04;100.00;100854.44;5275850;28;20494;-71
2022/09/30 09:24:54;;;;;;;55.22;36.67;;;;;;;9.25;100.00;100853.91;5281695;28;20016;-71
2022/09/30 09:27:37;;;;;;;49.65;33.47;;;;;;;9.30;100.00;100857.06;5287598;28;20407;-71
2022/09/30 09:30:12;;;;;;;45.75;30.95;;;;;;;9.54;100.00;100854.47;5278027;28;20043;-72
2022/09/30 09:32:50;;;;;;;40.60;29.60;;;;;;;9.55;100.00;100864.16;5283708;28;20112;-72
2022/09/30 09:35:34;;;;;;;35.45;24.55;;;;;;;9.59;100.00;100866.50;5276209;28;20069;-71
2022/09/30 09:38:23;;;;;;;32.17;25.58;;;;;;;9.74;100.00;100875.22;5278582;28;20036;-71
2022/09/30 09:41:20;;;;;;;34.92;24.63;;;;;;;9.92;100.00;100861.50;5284825;28;20032;-71
2022/09/30 09:44:01;;;;;;;35.88;24.83;;;;;;;10.12;100.00;100865.34;5281727;28;20019;-71
2022/09/30 09:46:49;;;;;;;34.78;25.10;;;;;;;10.06;100.00;100861.31;5269555;28;20954;-71
2022/09/30 09:49:22;;;;;;;32.35;23.98;;;;;;;10.10;100.00;100864.63;5268451;28;20508;-71
2022/09/30 09:52:11;;;;;;;25.95;19.70;;;;;;;10.39;100.00;100866.00;5276292;28;20056;-71
2022/09/30 09:54:45;;;;;;;28.92;20.52;;;;;;;10.33;100.00;100853.09;5283495;28;20092;-71
2022/09/30 09:57:23;;;;;;;25.95;20.92;;;;;;;10.53;100.00;100846.28;5288175;28;20028;-71
2022/09/30 10:01:09;;;;;;;25.50;20.15;;;;;;;10.60;100.00;100843.97;5284812;28;20019;-71
2022/09/30 10:03:04;;;;;;;24.08;19.80;;;;;;;10.70;100.00;100854.78;5282307;28;20048;-72
2022/09/30 10:05:39;;;;;;;24.35;18.45;;;;;;;10.70;100.00;100844.97;5284028;28;20028;-72
2022/09/30 10:08:17;;;;;;;20.85;15.20;;;;;;;10.87;100.00;100850.81;5288256;28;20032;-72
2022/09/30 10:10:54;;;;;;;17.75;13.82;;;;;;;11.02;100.00;100854.13;5291896;28;20542;-72
2022/09/30 10:13:42;;;;;;;14.85;12.52;;;;;;;10.99;100.00;100845.38;5276728;28;20029;-72
2022/09/30 10:16:34;;;;;;;14.13;12.38;;;;;;;11.19;100.00;100851.81;5271473;28;20034;-72
2022/09/30 10:19:21;;;;;;;14.20;12.70;;;;;;;11.24;100.00;100850.59;5286138;28;20028;-72
2022/09/30 10:22:08;;;;;;;15.23;12.20;;;;;;;11.25;100.00;100854.97;5289773;28;20036;-72
2022/09/30 10:24:39;;;;;;;13.48;11.07;;;;;;;11.40;100.00;100853.75;5276055;28;20036;-72
2022/09/30 10:27:30;;;;;;;13.32;11.38;;;;;;;11.41;100.00;100862.59;5287175;28;20465;-71
2022/09/30 10:30:02;;;;;;;13.57;10.55;;;;;;;11.47;100.00;100856.78;5275968;28;20031;-72
2022/09/30 10:32:34;;;;;;;10.65;9.55;;;;;;;11.66;100.00;100864.16;5287698;28;20511;-72
2022/09/30 10:35:19;;;;;;;11.43;9.68;;;;;;;11.60;100.00;100861.97;5279745;28;20064;-73
2022/09/30 10:37:53;;;;;;;12.38;9.43;;;;;;;11.71;100.00;100867.31;5273850;28;20032;-73
2022/09/30 10:40:28;;;;;;;11.00;9.63;;;;;;;11.61;100.00;100866.38;5264544;28;20024;-73
2022/09/30 10:42:59;;;;;;;11.88;8.65;;;;;;;11.68;100.00;100864.91;5291282;28;20378;-72
2022/09/30 10:45:37;;;;;;;9.57;8.57;;;;;;;11.82;100.00;100864.63;5282762;28;20046;-73
2022/09/30 10:48:18;;;;;;;10.88;9.02;;;;;;;12.01;100.00;100860.50;5289631;28;20024;-72
2022/09/30 10:50:54;;;;;;;12.75;8.45;;;;;;;12.08;100.00;100864.31;5282740;28;20037;-72
2022/09/30 10:53:33;;;;;;;9.55;7.43;;;;;;;12.19;100.00;100864.28;5285824;28;20032;-72
2022/09/30 10:56:05;;;;;;;9.07;6.45;;;;;;;12.27;100.00;100867.19;5289367;28;20044;-73
2022/09/30 10:58:47;;;;;;;7.35;5.88;;;;;;;12.32;100.00;100867.66;5283883;28;20089;-73
2022/09/30 11:01:27;;;;;;;6.05;4.78;;;;;;;12.30;100.00;100872.28;5288311;28;20131;-73
2022/09/30 11:04:10;;;;;;;6.10;4.60;;;;;;;12.26;100.00;100861.97;5291163;28;20085;-73
2022/09/30 11:06:44;;;;;;;7.63;5.30;;;;;;;12.30;100.00;100858.91;5279522;28;20039;-73
2022/09/30 11:09:33;;;;;;;6.97;4.30;;;;;;;12.52;100.00;100863.31;5293989;28;20031;-73
2022/09/30 11:12:15;;;;;;;6.05;3.70;;;;;;;12.53;100.00;100853.44;5286389;28;20046;-73
2022/09/30 11:15:05;;;;;;;4.68;3.30;;;;;;;12.70;100.00;100849.34;5287816;28;20430;-73
2022/09/30 11:17:49;;;;;;;4.95;2.75;;;;;;;12.79;100.00;100856.59;5292058;28;20036;-73
2022/09/30 11:20:29;;;;;;;5.10;3.00;;;;;;;12.83;100.00;100852.66;5288123;28;20036;-73
2022/09/30 11:23:21;;;;;;;4.60;3.28;;;;;;;12.88;100.00;100858.44;5289350;28;20434;-73
2022/09/30 11:26:03;;;;;;;5.18;4.00;;;;;;;12.91;100.00;100852.00;5282952;28;20046;-73
2022/09/30 11:29:04;;;;;;;4.55;3.55;;;;;;;12.98;100.00;100853.16;5289187;28;20568;-73
2022/09/30 11:31:47;;;;;;;6.35;4.22;;;;;;;13.12;100.00;100850.13;5286350;28;20394;-73
2022/09/30 11:34:47;;;;;;;4.82;3.90;;;;;;;13.24;100.00;100842.84;5285254;28;20036;-73
2022/09/30 11:37:30;;;;;;;4.82;3.58;;;;;;;13.36;100.00;100840.09;5292493;28;20097;-73
2022/09/30 11:40:07;;;;;;;4.75;3.33;;;;;;;13.46;100.00;100844.53;5287675;28;20024;-74
2022/09/30 11:42:47;;;;;;;5.15;3.50;;;;;;;13.50;100.00;100845.94;5286963;28;20037;-73
2022/09/30 11:46:00;;;;;;;4.80;3.13;;;;;;;13.60;100.00;100842.44;5291539;28;20105;-73
2022/09/30 11:48:40;;;;;;;3.90;2.60;;;;;;;13.46;100.00;100831.13;5287754;28;20028;-73
2022/09/30 11:51:33;;;;;;;4.22;2.85;;;;;;;13.50;100.00;100835.22;5283446;28;20056;-73
2022/09/30 11:54:22;;;;;;;5.13;3.33;;;;;;;13.45;100.00;100826.72;5285902;28;20027;-73
2022/09/30 11:57:00;;;;;;;5.60;3.63;;;;;;;13.61;100.00;100830.72;5291143;28;20111;-73
2022/09/30 11:59:42;;;;;;;4.35;3.33;;;;;;;13.64;100.00;100828.63;5277258;28;20024;-73